createdAt,value
2023-02-27T00:01:31.075Z,0.85
2023-02-27T00:03:04.672Z,0.60
2023-02-27T00:04:37.982Z,0.68
2023-02-27T00:06:11.461Z,1.10
2023-02-27T00:07:43.659Z,0.80
2023-02-27T00:09:16.740Z,0.98
2023-02-27T00:10:50.461Z,0.63
2023-02-27T00:12:23.528Z,0.80
2023-02-27T00:13:56.843Z,0.95
2023-02-27T00:15:30.738Z,0.73
2023-02-27T00:17:08.810Z,0.70
2023-02-27T00:18:42.797Z,0.80
2023-02-27T00:20:19.083Z,1.52
2023-02-27T00:21:52.832Z,0.60
2023-02-27T00:23:26.054Z,0.68
2023-02-27T00:24:59.372Z,0.50
2023-02-27T00:26:33.063Z,0.80
2023-02-27T00:28:06.421Z,0.95
2023-02-27T00:29:39.605Z,0.57
2023-02-27T00:31:12.828Z,0.70
2023-02-27T00:32:46.431Z,0.70
2023-02-27T00:34:20.403Z,0.70
2023-02-27T00:35:57.862Z,0.70
2023-02-27T00:37:30.980Z,0.63
2023-02-27T00:39:04.839Z,0.75
2023-02-27T00:40:37.937Z,0.60
2023-02-27T00:42:11.401Z,0.82
2023-02-27T00:43:44.550Z,0.80
2023-02-27T00:45:19.660Z,0.68
2023-02-27T00:46:54.216Z,0.75
2023-02-27T00:48:28.850Z,0.70
2023-02-27T00:50:02.691Z,0.77
2023-02-27T00:51:35.841Z,0.63
2023-02-27T00:53:09.901Z,0.60
2023-02-27T00:54:43.323Z,0.80
2023-02-27T00:56:17.276Z,0.93
2023-02-27T00:57:51.477Z,0.70
2023-02-27T00:59:24.668Z,0.85
2023-02-27T01:01:01.574Z,0.57
2023-02-27T01:02:35.195Z,0.57
2023-02-27T01:04:10.017Z,0.80
2023-02-27T01:05:43.174Z,0.60
2023-02-27T01:07:15.563Z,0.50
2023-02-27T01:08:48.699Z,0.80
2023-02-27T01:10:22.537Z,0.60
2023-02-27T01:11:57.450Z,0.73
2023-02-27T01:13:30.564Z,0.77
2023-02-27T01:15:06.677Z,1.00
2023-02-27T01:18:14.693Z,0.82
2023-02-27T01:19:49.154Z,0.85
2023-02-27T01:21:22.732Z,0.80
2023-02-27T01:22:55.929Z,0.70
2023-02-27T01:24:29.048Z,0.75
2023-02-27T01:26:02.209Z,0.60
2023-02-27T01:27:36.284Z,0.70
2023-02-27T01:29:11.313Z,0.60
2023-02-27T01:30:45.454Z,0.77
2023-02-27T01:32:20.810Z,0.65
2023-02-27T01:33:53.991Z,0.70
2023-02-27T01:35:27.758Z,0.80
2023-02-27T01:37:00.955Z,0.73
2023-02-27T01:38:33.153Z,0.68
2023-02-27T01:40:08.862Z,0.68
2023-02-27T01:41:42.076Z,0.60
2023-02-27T01:43:20.910Z,0.88
2023-02-27T01:45:27.379Z,0.75
2023-02-27T01:47:00.554Z,0.70
2023-02-27T01:48:39.057Z,0.70
2023-02-27T01:50:13.399Z,0.80
2023-02-27T01:51:52.818Z,0.57
2023-02-27T01:53:30.145Z,1.08
2023-02-27T01:55:05.176Z,0.70
2023-02-27T01:56:39.229Z,0.85
2023-02-27T01:58:15.539Z,0.73
2023-02-27T01:59:48.802Z,0.80
2023-02-27T02:01:24.255Z,0.77
2023-02-27T02:03:08.864Z,0.90
2023-02-27T02:04:43.527Z,0.70
2023-02-27T02:06:18.151Z,0.55
2023-02-27T02:07:55.105Z,0.70
2023-02-27T02:09:31.270Z,0.70
2023-02-27T02:11:07.465Z,0.75
2023-02-27T02:12:41.964Z,0.98
2023-02-27T02:14:16.432Z,0.68
2023-02-27T02:16:12.631Z,0.70
2023-02-27T02:17:58.330Z,0.70
2023-02-27T02:20:23.679Z,1.00
2023-02-27T02:22:36.544Z,0.90
2023-02-27T02:25:06.201Z,0.60
2023-02-27T02:27:09.032Z,1.00
2023-02-27T02:29:39.564Z,1.35
2023-02-27T02:31:50.135Z,0.90
2023-02-27T02:34:01.138Z,0.88
2023-02-27T02:36:17.471Z,0.90
2023-02-27T02:38:30.679Z,0.75
2023-02-27T02:40:37.573Z,0.80
2023-02-27T02:42:23.107Z,1.10
2023-02-27T02:44:08.593Z,0.95
2023-02-27T02:45:50.954Z,0.60
2023-02-27T02:47:36.634Z,0.80
2023-02-27T02:49:24.599Z,0.90
2023-02-27T02:51:06.996Z,1.13
2023-02-27T02:52:59.034Z,0.82
2023-02-27T02:54:41.436Z,0.90
2023-02-27T02:56:24.809Z,1.02
2023-02-27T02:58:08.371Z,0.93
2023-02-27T02:59:50.390Z,0.80
2023-02-27T03:01:29.565Z,0.80
2023-02-27T03:03:13.806Z,0.75
2023-02-27T03:04:54.724Z,0.90
2023-02-27T03:06:33.335Z,0.82
2023-02-27T03:08:13.303Z,1.00
2023-02-27T03:09:53.816Z,0.80
2023-02-27T03:11:37.566Z,0.98
2023-02-27T03:13:18.825Z,0.90
2023-02-27T03:14:57.492Z,1.00
2023-02-27T03:16:37.586Z,0.90
2023-02-27T03:18:20.412Z,0.90
2023-02-27T03:19:58.900Z,0.80
2023-02-27T03:21:40.393Z,1.00
2023-02-27T03:23:19.821Z,0.95
2023-02-27T03:24:58.271Z,0.95
2023-02-27T03:26:38.982Z,1.00
2023-02-27T03:28:21.013Z,0.95
2023-02-27T03:30:04.296Z,0.77
2023-02-27T03:31:45.938Z,1.00
2023-02-27T03:33:27.034Z,1.05
2023-02-27T03:35:01.990Z,0.90
2023-02-27T03:36:47.087Z,1.02
2023-02-27T03:38:32.921Z,0.88
2023-02-27T03:40:20.833Z,1.00
2023-02-27T03:42:03.999Z,1.10
2023-02-27T03:44:06.025Z,0.90
2023-02-27T03:45:52.312Z,0.88
2023-02-27T03:47:25.866Z,1.15
2023-02-27T03:48:59.068Z,0.82
2023-02-27T03:50:31.372Z,0.70
2023-02-27T03:52:04.967Z,1.00
2023-02-27T03:53:44.825Z,1.15
2023-02-27T03:55:22.252Z,1.10
2023-02-27T03:57:02.214Z,0.80
2023-02-27T03:58:36.895Z,1.13
2023-02-27T04:00:19.701Z,0.82
2023-02-27T04:01:56.131Z,0.80
2023-02-27T04:03:34.936Z,1.27
2023-02-27T04:05:09.838Z,1.02
2023-02-27T04:07:13.762Z,1.27
2023-02-27T04:09:05.530Z,1.10
2023-02-27T04:11:00.256Z,0.80
2023-02-27T04:13:21.537Z,1.20
2023-02-27T04:15:13.943Z,1.15
2023-02-27T04:17:18.661Z,0.93
2023-02-27T04:19:15.894Z,1.10
2023-02-27T04:20:58.296Z,1.00
2023-02-27T04:22:38.094Z,0.80
2023-02-27T04:24:23.693Z,0.80
2023-02-27T04:26:14.405Z,1.05
2023-02-27T04:27:59.271Z,1.17
2023-02-27T04:29:49.725Z,1.05
2023-02-27T04:31:31.952Z,1.13
2023-02-27T04:33:13.795Z,1.10
2023-02-27T04:34:53.157Z,1.25
2023-02-27T04:36:33.529Z,0.90
2023-02-27T04:38:17.500Z,1.02
2023-02-27T04:39:58.607Z,1.10
2023-02-27T04:41:38.250Z,1.10
2023-02-27T04:43:16.089Z,1.17
2023-02-27T04:44:52.973Z,1.10
2023-02-27T04:46:31.198Z,0.85
2023-02-27T04:48:12.370Z,0.90
2023-02-27T04:49:52.575Z,0.90
2023-02-27T04:51:34.410Z,1.10
2023-02-27T04:53:16.888Z,1.02
2023-02-27T04:54:57.353Z,0.82
2023-02-27T04:56:35.844Z,0.98
2023-02-27T04:58:15.383Z,1.08
2023-02-27T04:59:55.055Z,1.27
2023-02-27T05:01:38.878Z,1.45
2023-02-27T05:03:18.210Z,1.27
2023-02-27T05:04:54.876Z,1.10
2023-02-27T05:06:32.534Z,1.35
2023-02-27T05:08:12.045Z,1.27
2023-02-27T05:09:53.119Z,1.60
2023-02-27T05:11:32.544Z,0.98
2023-02-27T05:13:14.368Z,1.10
2023-02-27T05:14:54.923Z,0.98
2023-02-27T05:16:36.084Z,0.93
2023-02-27T05:18:13.196Z,1.58
2023-02-27T05:19:48.152Z,0.82
2023-02-27T05:21:30.527Z,0.90
2023-02-27T05:23:15.882Z,0.90
2023-02-27T05:24:58.419Z,1.10
2023-02-27T05:26:55.203Z,1.00
2023-02-27T05:28:39.029Z,1.00
2023-02-27T05:30:25.335Z,0.93
2023-02-27T05:32:08.705Z,1.10
2023-02-27T05:33:54.468Z,1.02
2023-02-27T05:35:35.070Z,0.70
2023-02-27T05:37:16.817Z,1.00
2023-02-27T05:38:57.884Z,0.98
2023-02-27T05:40:38.377Z,1.10
2023-02-27T05:42:19.252Z,1.00
2023-02-27T05:45:34.894Z,1.10
2023-02-27T05:47:17.191Z,1.00
2023-02-27T05:48:57.287Z,1.10
2023-02-27T05:50:34.640Z,1.02
2023-02-27T05:52:16.236Z,1.10
2023-02-27T05:53:59.157Z,1.00
2023-02-27T05:55:38.913Z,1.20
2023-02-27T05:57:22.436Z,1.20
2023-02-27T05:59:05.933Z,1.30
2023-02-27T06:00:44.635Z,1.00
2023-02-27T06:02:18.823Z,1.20
2023-02-27T06:05:29.459Z,1.00
2023-02-27T06:07:06.396Z,1.00
2023-02-27T06:08:40.904Z,1.20
2023-02-27T06:10:19.384Z,1.02
2023-02-27T06:11:52.492Z,1.25
2023-02-27T06:13:26.944Z,1.55
2023-02-27T06:15:01.686Z,1.20
2023-02-27T06:16:38.077Z,1.10
2023-02-27T06:18:12.309Z,1.05
2023-02-27T06:19:45.609Z,1.70
2023-02-27T06:21:18.706Z,1.45
2023-02-27T06:22:52.300Z,1.02
2023-02-27T06:24:26.812Z,1.15
2023-02-27T06:26:00.231Z,1.38
2023-02-27T06:27:33.370Z,1.02
2023-02-27T06:29:06.804Z,1.00
2023-02-27T06:30:41.638Z,1.20
2023-02-27T06:32:14.903Z,1.08
2023-02-27T06:33:48.049Z,1.05
2023-02-27T06:35:21.731Z,1.08
2023-02-27T06:36:54.970Z,1.08
2023-02-27T06:38:28.270Z,1.10
2023-02-27T06:40:01.408Z,1.50
2023-02-27T06:41:35.053Z,1.20
2023-02-27T06:43:08.168Z,3.97
2023-02-27T06:44:41.559Z,1.75
2023-02-27T06:46:16.339Z,1.60
2023-02-27T06:47:49.475Z,1.10
2023-02-27T06:49:22.925Z,1.25
2023-02-27T06:50:57.585Z,2.05
2023-02-27T06:52:30.695Z,2.13
2023-02-27T06:54:04.190Z,2.42
2023-02-27T06:55:37.533Z,1.92
2023-02-27T06:57:10.985Z,1.40
2023-02-27T06:58:45.020Z,0.98
2023-02-27T07:00:19.495Z,1.30
2023-02-27T07:01:54.181Z,1.40
2023-02-27T07:03:27.373Z,1.52
2023-02-27T07:05:00.548Z,1.17
2023-02-27T07:07:35.072Z,1.20
2023-02-27T07:08:35.882Z,1.15
2023-02-27T07:10:12.779Z,1.25
2023-02-27T07:11:45.902Z,1.20
2023-02-27T07:13:19.967Z,1.10
2023-02-27T07:14:53.748Z,1.40
2023-02-27T07:16:27.597Z,1.23
2023-02-27T07:18:02.489Z,1.50
2023-02-27T07:19:37.148Z,1.05
2023-02-27T07:21:10.345Z,1.40
2023-02-27T07:22:43.597Z,1.00
2023-02-27T07:24:17.310Z,1.08
2023-02-27T07:25:51.033Z,1.02
2023-02-27T07:27:24.255Z,1.20
2023-02-27T07:28:57.389Z,1.20
2023-02-27T07:30:31.013Z,1.30
2023-02-27T07:32:04.487Z,1.30
2023-02-27T07:33:39.076Z,1.30
2023-02-27T07:35:13.486Z,1.10
2023-02-27T07:36:46.629Z,1.30
2023-02-27T07:38:22.315Z,1.10
2023-02-27T07:39:55.962Z,0.95
2023-02-27T07:41:30.951Z,1.10
2023-02-27T07:43:06.789Z,1.30
2023-02-27T07:44:40.553Z,1.20
2023-02-27T07:46:13.686Z,1.50
2023-02-27T07:47:47.176Z,1.42
2023-02-27T07:49:21.876Z,1.40
2023-02-27T07:50:55.323Z,1.70
2023-02-27T07:54:06.740Z,1.40
2023-02-27T07:55:40.271Z,1.60
2023-02-27T07:57:13.725Z,1.70
2023-02-27T07:58:46.864Z,1.50
2023-02-27T08:00:22.112Z,1.80
2023-02-27T08:01:55.801Z,1.63
2023-02-27T08:03:28.962Z,1.90
2023-02-27T08:05:03.772Z,1.90
2023-02-27T08:06:36.841Z,1.52
2023-02-27T08:08:09.996Z,1.55
2023-02-27T08:09:43.126Z,1.52
2023-02-27T08:11:16.672Z,1.75
2023-02-27T08:12:49.788Z,1.50
2023-02-27T08:14:23.413Z,2.38
2023-02-27T08:15:56.767Z,2.15
2023-02-27T08:17:29.951Z,2.60
2023-02-27T08:19:03.206Z,3.42
2023-02-27T08:20:37.948Z,3.13
2023-02-27T08:22:12.272Z,3.10
2023-02-27T08:23:47.559Z,2.97
2023-02-27T08:25:21.639Z,4.38
2023-02-27T08:26:55.103Z,3.63
2023-02-27T08:28:29.253Z,2.97
2023-02-27T08:30:02.623Z,3.22
2023-02-27T08:31:36.056Z,3.25
2023-02-27T08:33:09.512Z,3.72
2023-02-27T08:34:42.782Z,3.88
2023-02-27T08:36:17.673Z,3.97
2023-02-27T08:37:50.889Z,5.00
2023-02-27T08:39:25.046Z,4.13
2023-02-27T08:40:58.447Z,3.60
2023-02-27T08:42:31.563Z,3.88
2023-02-27T08:44:05.402Z,3.10
2023-02-27T08:45:38.671Z,3.38
2023-02-27T08:47:12.543Z,3.65
2023-02-27T08:48:45.823Z,3.97
2023-02-27T08:50:19.402Z,3.15
2023-02-27T08:51:54.820Z,3.83
2023-02-27T08:53:30.047Z,3.25
2023-02-27T08:55:03.412Z,3.75
2023-02-27T08:56:36.620Z,3.20
2023-02-27T08:58:10.612Z,3.22
2023-02-27T08:59:43.763Z,2.95
2023-02-27T09:01:17.057Z,2.55
2023-02-27T09:02:50.888Z,2.88
2023-02-27T09:04:24.096Z,3.20
2023-02-27T09:05:58.280Z,2.80
2023-02-27T09:07:34.388Z,2.50
2023-02-27T09:09:08.196Z,2.30
2023-02-27T09:10:41.798Z,2.78
2023-02-27T09:12:15.399Z,2.25
2023-02-27T09:13:48.699Z,2.13
2023-02-27T09:15:22.189Z,2.00
2023-02-27T09:16:55.553Z,2.25
2023-02-27T09:18:29.359Z,2.05
2023-02-27T09:20:03.886Z,1.92
2023-02-27T09:21:37.529Z,1.75
2023-02-27T09:23:12.687Z,1.90
2023-02-27T09:26:19.450Z,1.52
2023-02-27T09:27:52.789Z,2.03
2023-02-27T09:29:27.473Z,1.70
2023-02-27T09:31:02.035Z,1.88
2023-02-27T09:32:35.205Z,1.83
2023-02-27T09:34:08.559Z,2.30
2023-02-27T09:35:41.796Z,1.50
2023-02-27T09:37:15.663Z,2.08
2023-02-27T09:38:50.307Z,1.90
2023-02-27T09:40:28.883Z,1.67
2023-02-27T09:42:06.326Z,1.80
2023-02-27T09:43:45.145Z,2.15
2023-02-27T09:45:24.811Z,1.90
2023-02-27T09:46:58.175Z,1.52
2023-02-27T09:48:39.059Z,1.30
2023-02-27T09:52:03.515Z,1.20
2023-02-27T09:53:42.273Z,1.40
2023-02-27T09:55:24.588Z,1.35
2023-02-27T09:57:03.678Z,1.25
2023-02-27T09:58:47.244Z,1.48
2023-02-27T10:00:47.182Z,1.38
2023-02-27T10:02:43.249Z,1.23
2023-02-27T10:04:33.676Z,1.02
2023-02-27T10:06:23.890Z,1.20
2023-02-27T10:08:06.795Z,1.10
2023-02-27T10:09:53.606Z,1.08
2023-02-27T10:11:43.074Z,1.75
2023-02-27T10:13:41.309Z,1.40
2023-02-27T10:15:25.023Z,0.93
2023-02-27T10:17:02.913Z,1.30
2023-02-27T10:18:49.339Z,1.60
2023-02-27T10:20:29.697Z,2.15
2023-02-27T10:22:08.776Z,1.17
2023-02-27T10:23:47.787Z,1.33
2023-02-27T10:26:46.741Z,1.35
2023-02-27T10:28:22.735Z,1.02
2023-02-27T10:30:29.567Z,1.23
2023-02-27T10:32:11.100Z,0.90
2023-02-27T10:33:48.000Z,0.70
2023-02-27T10:35:33.128Z,0.80
2023-02-27T10:37:07.951Z,0.80
2023-02-27T10:38:46.491Z,0.55
2023-02-27T10:40:21.425Z,0.60
2023-02-27T10:43:33.732Z,0.50
2023-02-27T10:45:16.839Z,0.70
2023-02-27T10:46:52.027Z,0.73
2023-02-27T10:48:25.505Z,0.95
2023-02-27T10:50:00.380Z,0.73
2023-02-27T10:51:38.091Z,1.00
2023-02-27T10:53:22.643Z,0.80
2023-02-27T10:54:56.133Z,0.90
2023-02-27T10:56:32.402Z,0.80
2023-02-27T10:58:08.516Z,0.70
2023-02-27T10:59:42.919Z,0.80
2023-02-27T11:01:16.406Z,1.10
2023-02-27T11:02:53.108Z,0.90
2023-02-27T11:04:32.868Z,1.20
2023-02-27T11:06:13.171Z,0.65
2023-02-27T11:07:46.630Z,0.57
2023-02-27T11:09:23.585Z,0.90
2023-02-27T11:11:03.717Z,0.60
2023-02-27T11:12:37.284Z,0.63
2023-02-27T11:14:36.468Z,1.13
2023-02-27T11:16:16.389Z,0.60
2023-02-27T11:17:49.962Z,0.70
2023-02-27T11:19:33.275Z,0.80
2023-02-27T11:21:24.379Z,0.75
2023-02-27T11:23:05.717Z,0.60
2023-02-27T11:24:38.878Z,0.57
2023-02-27T11:26:17.961Z,0.77
2023-02-27T11:27:52.403Z,0.63
2023-02-27T11:29:28.303Z,0.65
2023-02-27T11:31:05.542Z,0.70
2023-02-27T11:32:45.784Z,0.50
2023-02-27T11:34:25.737Z,0.80
2023-02-27T11:36:00.498Z,0.47
2023-02-27T11:37:38.102Z,0.40
2023-02-27T11:39:27.325Z,0.80
2023-02-27T11:41:03.524Z,0.52
2023-02-27T11:42:42.679Z,0.52
2023-02-27T11:44:34.009Z,0.70
2023-02-27T11:46:46.804Z,1.15
2023-02-27T11:48:23.385Z,1.38
2023-02-27T11:50:34.269Z,1.20
2023-02-27T11:52:20.969Z,1.23
2023-02-27T11:54:10.535Z,0.65
2023-02-27T11:55:46.267Z,0.80
2023-02-27T11:57:27.147Z,0.80
2023-02-27T11:59:14.266Z,0.38
2023-02-27T12:00:53.859Z,0.80
2023-02-27T12:02:44.764Z,0.73
2023-02-27T12:04:27.966Z,0.70
2023-02-27T12:06:10.413Z,0.47
2023-02-27T12:07:51.971Z,0.45
2023-02-27T12:09:40.636Z,0.45
2023-02-27T12:11:25.093Z,0.55
2023-02-27T12:13:05.210Z,0.32
2023-02-27T12:14:49.760Z,0.30
2023-02-27T12:16:34.008Z,0.30
2023-02-27T12:18:19.336Z,0.38
2023-02-27T12:20:09.421Z,0.45
2023-02-27T12:21:49.490Z,0.32
2023-02-27T12:23:33.299Z,0.60
2023-02-27T12:25:15.179Z,0.45
2023-02-27T12:26:56.832Z,0.47
2023-02-27T12:28:49.073Z,0.60
2023-02-27T12:30:27.983Z,0.60
2023-02-27T12:32:08.952Z,0.30
2023-02-27T12:33:53.363Z,0.70
2023-02-27T12:35:33.192Z,0.50
2023-02-27T12:37:13.356Z,0.85
2023-02-27T12:38:46.659Z,0.93
2023-02-27T12:40:29.396Z,0.50
2023-02-27T12:42:47.611Z,0.63
2023-02-27T12:44:43.681Z,0.40
2023-02-27T12:46:34.576Z,0.50
2023-02-27T12:48:23.110Z,0.40
2023-02-27T12:50:04.932Z,0.55
2023-02-27T12:51:52.850Z,0.50
2023-02-27T12:53:52.848Z,0.60
2023-02-27T12:55:31.820Z,0.50
2023-02-27T12:57:47.307Z,0.73
2023-02-27T12:59:44.405Z,0.93
2023-02-27T13:01:37.647Z,0.60
2023-02-27T13:03:20.485Z,0.73
2023-02-27T13:05:10.023Z,0.60
2023-02-27T13:06:51.012Z,0.85
2023-02-27T13:09:12.033Z,0.80
2023-02-27T13:10:52.507Z,0.75
2023-02-27T13:12:35.736Z,1.40
2023-02-27T13:14:26.919Z,1.00
2023-02-27T13:16:04.645Z,1.23
2023-02-27T13:17:46.329Z,0.40
2023-02-27T13:19:28.978Z,0.80
2023-02-27T13:21:13.341Z,0.70
2023-02-27T13:22:58.519Z,0.60
2023-02-27T13:24:34.561Z,0.45
2023-02-27T13:26:22.458Z,0.70
2023-02-27T13:28:03.747Z,0.40
2023-02-27T13:29:41.097Z,0.60
2023-02-27T13:31:25.507Z,0.65
2023-02-27T13:33:17.836Z,0.82
2023-02-27T13:36:40.051Z,0.90
2023-02-27T13:38:42.463Z,0.93
2023-02-27T13:40:36.059Z,0.47
2023-02-27T13:42:54.829Z,0.40
2023-02-27T13:44:49.381Z,0.38
2023-02-27T13:46:24.918Z,0.30
2023-02-27T13:47:58.106Z,0.50
2023-02-27T13:49:42.934Z,0.60
2023-02-27T13:51:53.032Z,0.65
2023-02-27T13:53:27.901Z,0.50
2023-02-27T13:55:11.849Z,0.30
2023-02-27T13:56:50.540Z,0.35
2023-02-27T13:58:25.663Z,0.68
2023-02-27T14:00:08.485Z,0.57
2023-02-27T14:01:55.090Z,0.52
2023-02-27T14:03:32.348Z,0.63
2023-02-27T14:05:09.446Z,0.60
2023-02-27T14:06:47.189Z,0.70
2023-02-27T14:08:26.482Z,0.55
2023-02-27T14:10:07.750Z,0.73
2023-02-27T14:11:41.887Z,0.50
2023-02-27T14:13:59.269Z,0.40
2023-02-27T14:16:00.848Z,0.40
2023-02-27T14:17:45.380Z,0.40
2023-02-27T14:19:50.318Z,0.35
2023-02-27T14:21:55.668Z,0.43
2023-02-27T14:23:31.271Z,0.68
2023-02-27T14:25:19.340Z,0.43
2023-02-27T14:26:55.420Z,0.52
2023-02-27T14:28:33.423Z,0.75
2023-02-27T14:30:22.849Z,0.80
2023-02-27T14:31:57.197Z,0.63
2023-02-27T14:33:41.345Z,0.50
2023-02-27T14:35:17.892Z,0.50
2023-02-27T14:36:56.617Z,0.90
2023-02-27T14:38:33.118Z,0.95
2023-02-27T14:40:07.988Z,0.70
2023-02-27T14:41:51.381Z,0.77
2023-02-27T14:43:37.414Z,0.70
2023-02-27T14:45:18.963Z,0.52
2023-02-27T14:46:56.736Z,0.73
2023-02-27T14:48:33.787Z,0.57
2023-02-27T14:50:24.344Z,0.68
2023-02-27T14:51:58.372Z,0.70
2023-02-27T14:53:33.092Z,0.70
2023-02-27T14:55:18.805Z,0.60
2023-02-27T14:56:57.648Z,0.45
2023-02-27T14:58:30.866Z,0.30
2023-02-27T15:00:05.830Z,0.63
2023-02-27T15:01:39.268Z,0.63
2023-02-27T15:03:20.891Z,0.70
2023-02-27T15:05:15.652Z,0.55
2023-02-27T15:06:52.046Z,0.60
2023-02-27T15:08:30.063Z,0.50
2023-02-27T15:10:09.358Z,0.68
2023-02-27T15:11:46.510Z,0.60
2023-02-27T15:13:28.662Z,0.60
2023-02-27T15:15:07.670Z,0.70
2023-02-27T15:16:42.619Z,0.50
2023-02-27T15:18:18.106Z,0.70
2023-02-27T15:19:53.821Z,0.88
2023-02-27T15:21:32.122Z,0.68
2023-02-27T15:23:25.961Z,0.63
2023-02-27T15:25:01.054Z,0.70
2023-02-27T15:26:40.927Z,0.55
2023-02-27T15:28:24.525Z,1.08
2023-02-27T15:30:01.657Z,0.63
2023-02-27T15:31:35.993Z,0.77
2023-02-27T15:33:16.444Z,0.70
2023-02-27T15:34:49.832Z,0.75
2023-02-27T15:36:26.939Z,0.80
2023-02-27T15:38:02.406Z,0.60
2023-02-27T15:39:37.876Z,0.82
2023-02-27T15:41:14.666Z,0.95
2023-02-27T15:42:50.240Z,0.70
2023-02-27T15:44:28.417Z,1.05
2023-02-27T15:46:02.196Z,1.30
2023-02-27T15:47:37.058Z,1.33
2023-02-27T15:49:21.463Z,0.80
2023-02-27T15:50:58.793Z,0.90
2023-02-27T15:52:42.066Z,0.88
2023-02-27T15:54:15.958Z,0.90
2023-02-27T15:55:54.315Z,0.80
2023-02-27T15:57:28.091Z,0.70
2023-02-27T15:59:05.272Z,0.80
2023-02-27T16:00:38.957Z,0.93
2023-02-27T16:02:21.406Z,1.02
2023-02-27T16:03:58.510Z,0.80
2023-02-27T16:05:37.056Z,1.20
2023-02-27T16:07:20.320Z,0.90
2023-02-27T16:08:58.429Z,0.95
2023-02-27T16:10:38.902Z,1.15
2023-02-27T16:12:24.838Z,1.02
2023-02-27T16:13:59.044Z,1.40
2023-02-27T16:15:36.335Z,0.90
2023-02-27T16:17:29.392Z,1.00
2023-02-27T16:19:16.576Z,0.65
2023-02-27T16:20:54.908Z,0.80
2023-02-27T16:22:30.337Z,0.68
2023-02-27T16:24:20.776Z,0.70
2023-02-27T16:26:18.022Z,0.60
2023-02-27T16:27:52.373Z,0.82
2023-02-27T16:29:34.469Z,0.70
2023-02-27T16:31:26.438Z,0.60
2023-02-27T16:33:02.693Z,0.70
2023-02-27T16:34:45.577Z,0.70
2023-02-27T16:36:27.788Z,0.90
2023-02-27T16:38:14.240Z,0.85
2023-02-27T16:39:57.823Z,1.00
2023-02-27T16:41:37.529Z,3.55
2023-02-27T16:45:24.406Z,1.40
2023-02-27T16:47:13.208Z,1.38
2023-02-27T16:49:17.972Z,1.13
2023-02-27T16:51:05.200Z,1.23
2023-02-27T16:52:46.114Z,0.80
2023-02-27T16:54:31.330Z,0.98
2023-02-27T16:56:21.472Z,0.80
2023-02-27T16:58:02.957Z,0.80
2023-02-27T16:59:44.805Z,0.90
2023-02-27T17:01:38.522Z,1.02
2023-02-27T17:03:22.653Z,1.20
2023-02-27T17:05:08.253Z,0.80
2023-02-27T17:06:41.878Z,0.70
2023-02-27T17:08:16.545Z,0.57
2023-02-27T17:09:50.326Z,0.63
2023-02-27T17:11:23.481Z,0.70
2023-02-27T17:12:56.785Z,0.55
2023-02-27T17:14:29.938Z,0.50
2023-02-27T17:16:03.390Z,0.80
2023-02-27T17:17:36.524Z,0.50
2023-02-27T17:19:11.023Z,0.60
2023-02-27T17:20:44.331Z,0.75
2023-02-27T17:22:17.566Z,0.70
2023-02-27T17:23:50.746Z,0.73
2023-02-27T17:25:25.585Z,0.77
2023-02-27T17:26:58.833Z,0.63
2023-02-27T17:28:32.813Z,0.50
2023-02-27T17:30:08.522Z,0.52
2023-02-27T17:31:43.058Z,0.80
2023-02-27T17:33:16.394Z,0.63
2023-02-27T17:34:54.721Z,1.20
2023-02-27T17:36:28.210Z,1.00
2023-02-27T17:38:01.454Z,0.88
2023-02-27T17:39:34.644Z,0.70
2023-02-27T17:41:08.986Z,1.08
2023-02-27T17:42:42.188Z,0.88
2023-02-27T17:44:15.938Z,1.10
2023-02-27T17:45:49.111Z,1.02
2023-02-27T17:47:22.385Z,1.08
2023-02-27T17:48:59.979Z,0.90
2023-02-27T17:50:34.625Z,1.10
2023-02-27T17:52:08.055Z,1.00
2023-02-27T17:53:41.655Z,1.02
2023-02-27T17:55:16.541Z,0.80
2023-02-27T17:56:49.766Z,0.75
2023-02-27T17:58:23.007Z,0.80
2023-02-27T17:59:56.273Z,0.68
2023-02-27T18:01:29.570Z,0.55
2023-02-27T18:03:02.867Z,0.50
2023-02-27T18:04:36.066Z,0.70
2023-02-27T18:06:11.328Z,0.98
2023-02-27T18:07:44.566Z,0.60
2023-02-27T18:09:18.149Z,0.80
2023-02-27T18:10:53.130Z,0.98
2023-02-27T18:12:28.675Z,0.90
2023-02-27T18:14:02.203Z,1.35
2023-02-27T18:15:35.471Z,1.52
2023-02-27T18:17:11.912Z,1.73
2023-02-27T18:18:45.678Z,1.20
2023-02-27T18:20:19.545Z,1.42
2023-02-27T18:21:54.174Z,1.65
2023-02-27T18:23:28.019Z,1.50
2023-02-27T18:25:01.321Z,1.80
2023-02-27T18:26:35.189Z,1.38
2023-02-27T18:28:10.895Z,1.23
2023-02-27T18:29:44.662Z,1.35
2023-02-27T18:31:25.319Z,1.17
2023-02-27T18:32:59.355Z,0.95
2023-02-27T18:34:32.799Z,1.00
2023-02-27T18:36:06.853Z,1.00
2023-02-27T18:37:41.443Z,1.00
2023-02-27T18:39:15.047Z,1.23
2023-02-27T18:40:48.294Z,1.50
2023-02-27T18:42:21.482Z,1.33
2023-02-27T18:43:54.881Z,1.33
2023-02-27T18:45:29.463Z,1.65
2023-02-27T18:47:02.653Z,2.60
2023-02-27T18:48:36.042Z,2.50
2023-02-27T18:50:10.862Z,3.47
2023-02-27T18:51:44.220Z,3.40
2023-02-27T18:53:19.548Z,2.70
2023-02-27T18:54:52.809Z,2.85
2023-02-27T18:56:30.221Z,2.45
2023-02-27T18:58:06.060Z,2.60
2023-02-27T18:59:41.126Z,2.88
2023-02-27T19:02:56.171Z,2.15
2023-02-27T19:04:32.943Z,2.20
2023-02-27T19:06:07.293Z,1.80
2023-02-27T19:07:40.635Z,1.50
2023-02-27T19:09:20.362Z,1.50
2023-02-27T19:10:55.108Z,1.58
2023-02-27T19:12:28.386Z,1.85
2023-02-27T19:14:04.484Z,2.58
2023-02-27T19:15:37.768Z,2.45
2023-02-27T19:17:11.003Z,2.83
2023-02-27T19:18:44.094Z,2.58
2023-02-27T19:20:20.441Z,2.88
2023-02-27T19:21:53.576Z,3.25
2023-02-27T19:23:30.397Z,3.20
2023-02-27T19:25:06.263Z,4.07
2023-02-27T19:26:39.880Z,5.38
2023-02-27T19:28:15.280Z,3.10
2023-02-27T19:29:48.404Z,5.03
2023-02-27T19:31:33.171Z,5.80
2023-02-27T19:33:06.573Z,5.75
2023-02-27T19:34:39.671Z,6.03
2023-02-27T19:36:16.769Z,5.68
2023-02-27T19:37:56.754Z,6.07
2023-02-27T19:39:29.931Z,5.97
2023-02-27T19:41:07.344Z,6.47
2023-02-27T19:42:41.038Z,6.88
2023-02-27T19:44:14.185Z,9.82
2023-02-27T19:45:47.583Z,10.75
2023-02-27T19:47:20.741Z,8.27
2023-02-27T19:48:57.558Z,8.35
2023-02-27T19:50:31.111Z,9.52
2023-02-27T19:52:04.961Z,7.97
2023-02-27T19:53:55.892Z,7.32
2023-02-27T19:55:29.228Z,5.63
2023-02-27T19:57:03.772Z,6.10
2023-02-27T19:58:38.574Z,4.60
2023-02-27T20:00:14.134Z,3.85
2023-02-27T20:01:47.295Z,5.18
2023-02-27T20:03:20.780Z,4.78
2023-02-27T20:04:54.817Z,3.13
2023-02-27T20:06:32.165Z,3.00
2023-02-27T20:08:06.204Z,3.90
2023-02-27T20:09:39.667Z,4.25
2023-02-27T20:11:13.502Z,4.30
2023-02-27T20:12:48.368Z,3.45
2023-02-27T20:14:21.480Z,3.65
2023-02-27T20:15:58.811Z,6.57
2023-02-27T20:17:32.203Z,4.55
2023-02-27T20:19:06.246Z,4.13
2023-02-27T20:20:39.941Z,3.35
2023-02-27T20:22:15.966Z,2.95
2023-02-27T20:23:51.573Z,2.33
2023-02-27T20:25:26.025Z,1.70
2023-02-27T20:27:00.031Z,1.65
2023-02-27T20:28:34.551Z,1.27
2023-02-27T20:30:09.214Z,1.60
2023-02-27T20:31:46.019Z,1.30
2023-02-27T20:33:19.286Z,1.50
2023-02-27T20:34:55.643Z,0.93
2023-02-27T20:36:29.883Z,1.58
2023-02-27T20:38:02.994Z,1.25
2023-02-27T20:39:36.427Z,1.15
2023-02-27T20:41:13.061Z,2.03
2023-02-27T20:42:46.856Z,2.42
2023-02-27T20:44:21.763Z,1.85
2023-02-27T20:45:55.017Z,1.50
2023-02-27T20:47:28.188Z,1.65
2023-02-27T20:49:04.408Z,1.13
2023-02-27T20:50:37.524Z,3.00
2023-02-27T20:52:10.806Z,1.75
2023-02-27T20:53:47.916Z,1.50
2023-02-27T20:55:21.165Z,1.15
2023-02-27T20:56:54.822Z,1.90
2023-02-27T20:58:27.979Z,1.10
2023-02-27T21:00:03.747Z,0.98
2023-02-27T21:01:38.634Z,0.93
2023-02-27T21:03:12.140Z,2.70
2023-02-27T21:04:49.219Z,1.67
2023-02-27T21:06:27.195Z,2.63
2023-02-27T21:08:03.056Z,2.38
2023-02-27T21:09:40.887Z,1.77
2023-02-27T21:11:18.528Z,2.72
2023-02-27T21:12:54.254Z,5.90
2023-02-27T21:14:27.453Z,4.70
2023-02-27T21:16:04.078Z,3.35
2023-02-27T21:17:37.333Z,3.03
2023-02-27T21:19:10.535Z,4.10
2023-02-27T21:20:45.809Z,4.03
2023-02-27T21:22:19.270Z,3.47
2023-02-27T21:23:53.248Z,3.47
2023-02-27T21:25:28.481Z,4.00
2023-02-27T21:27:01.655Z,3.92
2023-02-27T21:28:46.753Z,4.00
2023-02-27T21:30:20.829Z,4.97
2023-02-27T21:31:55.644Z,2.88
2023-02-27T21:33:28.940Z,2.60
2023-02-27T21:35:02.100Z,2.30
2023-02-27T21:36:42.790Z,2.13
2023-02-27T21:38:17.569Z,2.00
2023-02-27T21:39:56.588Z,2.28
2023-02-27T21:41:31.100Z,2.63
2023-02-27T21:43:04.568Z,2.00
2023-02-27T21:44:38.143Z,2.13
2023-02-27T21:46:13.529Z,1.60
2023-02-27T21:47:48.347Z,1.20
2023-02-27T21:49:25.066Z,1.30
2023-02-27T21:50:59.534Z,1.42
2023-02-27T21:52:33.662Z,1.70
2023-02-27T21:54:06.987Z,1.55
2023-02-27T21:55:40.132Z,1.73
2023-02-27T21:57:13.253Z,1.52
2023-02-27T21:58:46.633Z,1.83
2023-02-27T22:00:23.085Z,1.95
2023-02-27T22:01:57.056Z,1.67
2023-02-27T22:03:34.269Z,2.22
2023-02-27T22:05:08.645Z,2.33
2023-02-27T22:06:41.786Z,2.28
2023-02-27T22:08:14.953Z,1.75
2023-02-27T22:09:49.837Z,2.05
2023-02-27T22:11:23.905Z,1.95
2023-02-27T22:12:56.986Z,1.98
2023-02-27T22:14:30.155Z,1.73
2023-02-27T22:16:08.565Z,2.00